Naikai2 — JD2433 — position and weather

sailwx.info

Track history (hours):
 
Tides and Currents Weather Stations Pressure Air Temp Water Temp Dewpoint Dewpoint Depression Visibility Wind Speed Wind Dir Waves Ship Positions

Naikai2

Last reported at 2018-Jan-19 05:30 UTC. Time now 2018-Jan-19 05:59 UTC.
Position N 34°15' E 134°58'.

Length 28 m; draft 2.2 m.

Type: Other ship. MMSI: 431000283.

Date/timePositionNaut miles runAvg speedWind from/ knotsBaromVisibWave heightAir tempDewpointWater temp
2018-Jan-19 05:30N 34°15' E 134°58'510.9
2018-Jan-19 05:01N 34°21' E 134°60'714.6
2018-Jan-19 04:30N 34°27' E 135°03'612.3
2018-Jan-19 04:00N 34°33' E 135°06'3 6.9
2018-Jan-19 03:30N 34°36' E 135°03'5 9.8
2018-Jan-19 03:00N 34°36' E 134°57'612.1
2018-Jan-19 02:29N 34°34' E 134°50'612.9
2018-Jan-19 02:00N 34°34' E 134°43'713.9
2018-Jan-19 01:30N 34°41' E 134°41'4 8.8
2018-Jan-19 01:00N 34°46' E 134°41'0 0.1
2018-Jan-19 00:30N 34°45' E 134°41'1 2.8
2018-Jan-19 00:00N 34°44' E 134°40'3 2.9
2018-Jan-18 23:08N 34°47' E 134°39'0 0.0
2018-Jan-18 05:37N 34°47' E 134°39'0 0.4
2018-Jan-18 05:26N 34°47' E 134°39'2 3.5
2018-Jan-18 05:00N 34°46' E 134°41'0 0.2
2018-Jan-18 04:30N 34°46' E 134°41'0 0.4
2018-Jan-18 04:00N 34°46' E 134°41'2 3.4
2018-Jan-18 03:30N 34°44' E 134°41'510.9
2018-Jan-18 03:00N 34°39' E 134°42'612.1
2018-Jan-18 02:30N 34°33' E 134°44'714.9
2018-Jan-18 02:00N 34°35' E 134°53'713.1
2018-Jan-18 01:31N 34°38' E 135°00'5 9.8
2018-Jan-18 01:00N 34°35' E 135°06'5 4.9
2018-Jan-18 00:00N 34°30' E 135°06'110.8
2018-Jan-17 23:57N 34°30' E 135°06'  
2018-Jan-12 04:32N 34°47' E 134°39'0 7.2
2018-Jan-12 04:28N 34°46' E 134°39'2 3.4
2018-Jan-12 03:59N 34°46' E 134°41'3 6.0
2018-Jan-12 03:30N 34°43' E 134°41'5 9.8
2018-Jan-12 03:00N 34°38' E 134°41'611.5
2018-Jan-12 02:30N 34°34' E 134°45'713.6
2018-Jan-12 02:00N 34°35' E 134°53'713.3
2018-Jan-12 01:30N 34°37' E 135°01'510.6
2018-Jan-12 01:00N 34°35' E 135°07'2 4.3
2018-Jan-12 00:30N 34°33' E 135°08'4 8.2
2018-Jan-12 00:00N 34°29' E 135°07'5 9.8
2018-Jan-11 23:30N 34°25' E 135°05'611.2
2018-Jan-11 23:01N 34°20' E 135°01'613.0
2018-Jan-11 22:30N 34°14' E 134°59'0 0.7
2018-Jan-11 22:01N 34°14' E 134°59'613.0
2018-Jan-11 21:31N 34°20' E 134°56'1 0.1
2018-Jan-11 08:02N 34°21' E 134°55'016.0
2018-Jan-11 08:01N 34°20' E 134°55'510.4
2018-Jan-11 07:30N 34°16' E 134°58'612.4
2018-Jan-11 07:01N 34°22' E 134°60'714.4
2018-Jan-11 06:31N 34°28' E 135°04'612.3
2018-Jan-11 06:00N 34°34' E 135°07'3 6.9
2018-Jan-11 05:31N 34°35' E 135°03'5 9.9
2018-Jan-11 05:00N 34°36' E 134°58'713.8
2018-Jan-11 04:31N 34°34' E 134°50'612.6
2018-Jan-11 04:01N 34°34' E 134°42'612.9
2018-Jan-11 03:30N 34°41' E 134°41'5 7.5
2018-Jan-11 02:53N 34°46' E 134°41'0 0.2
2018-Jan-11 02:30N 34°45' E 134°41'2 3.8
2018-Jan-11 01:58N 34°46' E 134°38'1 0.1
2018-Jan-10 05:44N 34°47' E 134°38'1 3.9
2018-Jan-10 05:29N 34°46' E 134°38'1 2.2
2018-Jan-10 05:00N 34°46' E 134°39'2 3.1
2018-Jan-10 04:29N 34°46' E 134°41'0 0.1
2018-Jan-10 03:56N 34°46' E 134°41'2 5.2
2018-Jan-10 03:30N 34°44' E 134°41'510.5
2018-Jan-10 03:00N 34°39' E 134°42'510.7
2018-Jan-10 02:30N 34°34' E 134°44'713.4
2018-Jan-10 02:00N 34°35' E 134°52'612.6
2018-Jan-10 01:31N 34°37' E 134°59'611.7
2018-Jan-10 01:01N 34°35' E 135°06'2 4.8
2018-Jan-10 00:30N 34°33' E 135°08'3 6.7
2018-Jan-10 00:01N 34°30' E 135°07'612.4
2018-Jan-09 23:31N 34°25' E 135°04'713.6
2018-Jan-09 23:00N 34°19' E 134°60'612.8
2018-Jan-09 22:30N 34°12' E 134°59'3 5.1
2018-Jan-09 22:00N 34°12' E 135°02'5 9.9
2018-Jan-09 21:30N 34°13' E 135°08'1 1.9
2018-Jan-09 21:00N 34°13' E 135°09'0 0.0
2018-Jan-09 20:30N 34°13' E 135°09'0 0.0
2018-Jan-09 20:00N 34°13' E 135°09'0 0.0
2018-Jan-09 19:30N 34°13' E 135°09'0 0.0
2018-Jan-09 19:00N 34°13' E 135°09'0 0.0
2018-Jan-09 18:30N 34°13' E 135°09'0 0.0
2018-Jan-09 18:00N 34°13' E 135°09'0 0.0
2018-Jan-09 17:30N 34°13' E 135°09'0 0.0
2018-Jan-09 17:00N 34°13' E 135°09'0 0.0
2018-Jan-09 16:30N 34°13' E 135°09'0 0.0
2018-Jan-09 16:00N 34°13' E 135°09'0 0.0
2018-Jan-09 15:30N 34°13' E 135°09'0 0.0
2018-Jan-09 15:00N 34°13' E 135°09'0 0.0
2018-Jan-09 14:30N 34°13' E 135°09'0 0.0
2018-Jan-09 14:00N 34°13' E 135°09'0 0.0
2018-Jan-09 13:30N 34°13' E 135°09'0 0.0
2018-Jan-09 13:00N 34°13' E 135°09'0 0.0
2018-Jan-09 12:30N 34°13' E 135°09'0 0.0
2018-Jan-09 12:00N 34°13' E 135°09'0 0.0
2018-Jan-09 11:31N 34°13' E 135°09'0 0.0
2018-Jan-09 11:00N 34°13' E 135°09'0 0.0
2018-Jan-09 10:30N 34°13' E 135°09'0 0.0
2018-Jan-09 10:00N 34°13' E 135°09'0 0.0
2018-Jan-09 09:30N 34°13' E 135°09'0 0.0
2018-Jan-09 09:00N 34°13' E 135°09'0 0.0
2018-Jan-09 08:30N 34°13' E 135°09'0 0.0
2018-Jan-09 08:00N 34°13' E 135°09'0 0.0
2018-Jan-09 07:30N 34°13' E 135°09'0 0.0
2018-Jan-09 07:00N 34°13' E 135°09'0 0.0
2018-Jan-09 06:30N 34°13' E 135°09'0 0.0
2018-Jan-09 06:00N 34°13' E 135°09'  
Track history (hours):
 
Tides and Currents Weather Stations Pressure Air Temp Water Temp Dewpoint Dewpoint Depression Visibility Wind Speed Wind Dir Waves Ship Positions

Naikai2

Last reported at 2018-Jan-19 05:30 UTC. Time now 2018-Jan-19 05:59 UTC.
Position N 34°15' E 134°58'.

Length 28 m; draft 2.2 m.

Type: Other ship. MMSI: 431000283.

Date/timePositionNaut miles runAvg speedWind from/ knotsBaromVisibWave heightAir tempDewpointWater temp
2018-Jan-19 05:30N 34°15' E 134°58'510.9
2018-Jan-19 05:01N 34°21' E 134°60'714.6
2018-Jan-19 04:30N 34°27' E 135°03'612.3
2018-Jan-19 04:00N 34°33' E 135°06'3 6.9
2018-Jan-19 03:30N 34°36' E 135°03'5 9.8
2018-Jan-19 03:00N 34°36' E 134°57'612.1
2018-Jan-19 02:29N 34°34' E 134°50'612.9
2018-Jan-19 02:00N 34°34' E 134°43'713.9
2018-Jan-19 01:30N 34°41' E 134°41'4 8.8
2018-Jan-19 01:00N 34°46' E 134°41'0 0.1
2018-Jan-19 00:30N 34°45' E 134°41'1 2.8
2018-Jan-19 00:00N 34°44' E 134°40'3 2.9
2018-Jan-18 23:08N 34°47' E 134°39'0 0.0
2018-Jan-18 05:37N 34°47' E 134°39'0 0.4
2018-Jan-18 05:26N 34°47' E 134°39'2 3.5
2018-Jan-18 05:00N 34°46' E 134°41'0 0.2
2018-Jan-18 04:30N 34°46' E 134°41'0 0.4
2018-Jan-18 04:00N 34°46' E 134°41'2 3.4
2018-Jan-18 03:30N 34°44' E 134°41'510.9
2018-Jan-18 03:00N 34°39' E 134°42'612.1
2018-Jan-18 02:30N 34°33' E 134°44'714.9
2018-Jan-18 02:00N 34°35' E 134°53'713.1
2018-Jan-18 01:31N 34°38' E 135°00'5 9.8
2018-Jan-18 01:00N 34°35' E 135°06'5 4.9
2018-Jan-18 00:00N 34°30' E 135°06'110.8
2018-Jan-17 23:57N 34°30' E 135°06'  
2018-Jan-12 04:32N 34°47' E 134°39'0 7.2
2018-Jan-12 04:28N 34°46' E 134°39'2 3.4
2018-Jan-12 03:59N 34°46' E 134°41'3 6.0
2018-Jan-12 03:30N 34°43' E 134°41'5 9.8
2018-Jan-12 03:00N 34°38' E 134°41'611.5
2018-Jan-12 02:30N 34°34' E 134°45'713.6
2018-Jan-12 02:00N 34°35' E 134°53'713.3
2018-Jan-12 01:30N 34°37' E 135°01'510.6
2018-Jan-12 01:00N 34°35' E 135°07'2 4.3
2018-Jan-12 00:30N 34°33' E 135°08'4 8.2
2018-Jan-12 00:00N 34°29' E 135°07'5 9.8
2018-Jan-11 23:30N 34°25' E 135°05'611.2
2018-Jan-11 23:01N 34°20' E 135°01'613.0
2018-Jan-11 22:30N 34°14' E 134°59'0 0.7
2018-Jan-11 22:01N 34°14' E 134°59'613.0
2018-Jan-11 21:31N 34°20' E 134°56'1 0.1
2018-Jan-11 08:02N 34°21' E 134°55'016.0
2018-Jan-11 08:01N 34°20' E 134°55'510.4
2018-Jan-11 07:30N 34°16' E 134°58'612.4
2018-Jan-11 07:01N 34°22' E 134°60'714.4
2018-Jan-11 06:31N 34°28' E 135°04'612.3
2018-Jan-11 06:00N 34°34' E 135°07'3 6.9
2018-Jan-11 05:31N 34°35' E 135°03'5 9.9
2018-Jan-11 05:00N 34°36' E 134°58'713.8
2018-Jan-11 04:31N 34°34' E 134°50'612.6
2018-Jan-11 04:01N 34°34' E 134°42'612.9
2018-Jan-11 03:30N 34°41' E 134°41'5 7.5
2018-Jan-11 02:53N 34°46' E 134°41'0 0.2
2018-Jan-11 02:30N 34°45' E 134°41'2 3.8
2018-Jan-11 01:58N 34°46' E 134°38'1 0.1
2018-Jan-10 05:44N 34°47' E 134°38'1 3.9
2018-Jan-10 05:29N 34°46' E 134°38'1 2.2
2018-Jan-10 05:00N 34°46' E 134°39'2 3.1
2018-Jan-10 04:29N 34°46' E 134°41'0 0.1
2018-Jan-10 03:56N 34°46' E 134°41'2 5.2
2018-Jan-10 03:30N 34°44' E 134°41'510.5
2018-Jan-10 03:00N 34°39' E 134°42'510.7
2018-Jan-10 02:30N 34°34' E 134°44'713.4
2018-Jan-10 02:00N 34°35' E 134°52'612.6
2018-Jan-10 01:31N 34°37' E 134°59'611.7
2018-Jan-10 01:01N 34°35' E 135°06'2 4.8
2018-Jan-10 00:30N 34°33' E 135°08'3 6.7
2018-Jan-10 00:01N 34°30' E 135°07'612.4
2018-Jan-09 23:31N 34°25' E 135°04'713.6
2018-Jan-09 23:00N 34°19' E 134°60'612.8
2018-Jan-09 22:30N 34°12' E 134°59'3 5.1
2018-Jan-09 22:00N 34°12' E 135°02'5 9.9
2018-Jan-09 21:30N 34°13' E 135°08'1 1.9
2018-Jan-09 21:00N 34°13' E 135°09'0 0.0
2018-Jan-09 20:30N 34°13' E 135°09'0 0.0
2018-Jan-09 20:00N 34°13' E 135°09'0 0.0
2018-Jan-09 19:30N 34°13' E 135°09'0 0.0
2018-Jan-09 19:00N 34°13' E 135°09'0 0.0
2018-Jan-09 18:30N 34°13' E 135°09'0 0.0
2018-Jan-09 18:00N 34°13' E 135°09'0 0.0
2018-Jan-09 17:30N 34°13' E 135°09'0 0.0
2018-Jan-09 17:00N 34°13' E 135°09'0 0.0
2018-Jan-09 16:30N 34°13' E 135°09'0 0.0
2018-Jan-09 16:00N 34°13' E 135°09'0 0.0
2018-Jan-09 15:30N 34°13' E 135°09'0 0.0
2018-Jan-09 15:00N 34°13' E 135°09'0 0.0
2018-Jan-09 14:30N 34°13' E 135°09'0 0.0
2018-Jan-09 14:00N 34°13' E 135°09'0 0.0
2018-Jan-09 13:30N 34°13' E 135°09'0 0.0
2018-Jan-09 13:00N 34°13' E 135°09'0 0.0
2018-Jan-09 12:30N 34°13' E 135°09'0 0.0
2018-Jan-09 12:00N 34°13' E 135°09'0 0.0
2018-Jan-09 11:31N 34°13' E 135°09'0 0.0
2018-Jan-09 11:00N 34°13' E 135°09'0 0.0
2018-Jan-09 10:30N 34°13' E 135°09'0 0.0
2018-Jan-09 10:00N 34°13' E 135°09'0 0.0
2018-Jan-09 09:30N 34°13' E 135°09'0 0.0
2018-Jan-09 09:00N 34°13' E 135°09'0 0.0
2018-Jan-09 08:30N 34°13' E 135°09'0 0.0
2018-Jan-09 08:00N 34°13' E 135°09'0 0.0
2018-Jan-09 07:30N 34°13' E 135°09'0 0.0
2018-Jan-09 07:00N 34°13' E 135°09'0 0.0
2018-Jan-09 06:30N 34°13' E 135°09'0 0.0
2018-Jan-09 06:00N 34°13' E 135°09'  

Dump ship's entire track history